createdAt,value
2022-08-11T00:02:30.903Z,19.11
2022-08-11T00:05:03.191Z,19.09
2022-08-11T00:07:31.781Z,19.06
2022-08-11T00:10:00.869Z,18.83
2022-08-11T00:12:29.560Z,18.86
2022-08-11T00:15:00.265Z,18.97
2022-08-11T00:17:33.183Z,18.96
2022-08-11T00:20:11.711Z,18.91
2022-08-11T00:22:46.205Z,18.92
2022-08-11T00:25:16.961Z,18.89
2022-08-11T00:27:45.449Z,18.87
2022-08-11T00:30:14.652Z,18.87
2022-08-11T00:32:56.433Z,18.86
2022-08-11T00:35:55.474Z,18.80
2022-08-11T00:38:18.954Z,18.78
2022-08-11T00:40:54.234Z,18.70
2022-08-11T00:43:30.691Z,18.40
2022-08-11T00:46:15.360Z,18.75
2022-08-11T00:49:00.993Z,18.74
2022-08-11T00:52:04.184Z,18.75
2022-08-11T00:55:13.925Z,18.74
2022-08-11T00:58:41.074Z,18.73
2022-08-11T01:01:22.811Z,18.69
2022-08-11T01:04:31.838Z,18.65
2022-08-11T01:08:01.470Z,18.61
2022-08-11T01:10:53.622Z,18.60
2022-08-11T01:13:48.098Z,18.56
2022-08-11T01:16:53.862Z,18.52
2022-08-11T01:20:44.749Z,18.50
2022-08-11T01:23:19.770Z,18.48
2022-08-11T01:26:22.170Z,18.28
2022-08-11T01:29:31.445Z,18.44
2022-08-11T01:32:47.878Z,18.42
2022-08-11T01:35:37.415Z,18.20
2022-08-11T01:38:47.618Z,18.34
2022-08-11T01:42:09.280Z,18.24
2022-08-11T01:45:07.339Z,18.31
2022-08-11T01:47:54.157Z,18.29
2022-08-11T01:50:38.552Z,18.27
2022-08-11T01:53:19.353Z,18.26
2022-08-11T01:55:58.209Z,18.25
2022-08-11T01:58:43.406Z,18.23
2022-08-11T02:01:29.582Z,18.08
2022-08-11T02:04:08.039Z,18.19
2022-08-11T02:06:58.673Z,18.14
2022-08-11T02:09:53.231Z,18.17
2022-08-11T02:12:37.954Z,18.15
2022-08-11T02:15:29.046Z,18.14
2022-08-11T02:18:06.665Z,18.01
2022-08-11T02:21:00.370Z,18.13
2022-08-11T02:24:06.599Z,18.11
2022-08-11T02:26:41.298Z,18.09
2022-08-11T02:29:17.210Z,18.09
2022-08-11T02:32:28.623Z,18.07
2022-08-11T02:35:06.860Z,18.05
2022-08-11T02:37:45.366Z,17.81
2022-08-11T02:40:25.454Z,18.03
2022-08-11T02:43:10.323Z,17.98
2022-08-11T02:45:54.231Z,17.99
2022-08-11T02:48:52.701Z,17.98
2022-08-11T02:51:28.950Z,17.94
2022-08-11T02:54:07.722Z,17.90
2022-08-11T02:56:52.463Z,17.79
2022-08-11T02:59:51.739Z,17.84
2022-08-11T03:02:42.607Z,17.81
2022-08-11T03:05:23.701Z,17.80
2022-08-11T03:08:06.893Z,17.78
2022-08-11T03:10:43.546Z,17.78
2022-08-11T03:13:38.008Z,17.74
2022-08-11T03:16:34.511Z,17.73
2022-08-11T03:19:13.240Z,17.71
2022-08-11T03:22:01.856Z,17.56
2022-08-11T03:24:51.435Z,17.72
2022-08-11T03:27:44.043Z,17.74
2022-08-11T03:30:17.468Z,17.64
2022-08-11T03:33:19.326Z,17.73
2022-08-11T03:36:02.377Z,17.67
2022-08-11T03:38:39.678Z,17.72
2022-08-11T03:42:03.542Z,17.72
2022-08-11T03:44:57.126Z,17.69
2022-08-11T03:47:55.426Z,17.68
2022-08-11T03:50:54.456Z,17.69
2022-08-11T03:53:46.537Z,17.68
2022-08-11T03:56:42.764Z,17.60
2022-08-11T03:59:33.320Z,17.69
2022-08-11T04:02:28.709Z,17.69
2022-08-11T04:05:40.185Z,17.70
2022-08-11T04:08:33.831Z,17.71
2022-08-11T04:11:32.198Z,17.71
2022-08-11T04:14:42.714Z,17.73
2022-08-11T04:17:37.277Z,17.72
2022-08-11T04:20:50.982Z,17.80
2022-08-11T04:24:35.483Z,17.84
2022-08-11T04:26:55.150Z,17.84
2022-08-11T04:30:04.015Z,17.83
2022-08-11T04:32:43.639Z,17.81
2022-08-11T04:35:26.552Z,17.74
2022-08-11T04:38:31.043Z,17.71
2022-08-11T04:41:27.068Z,17.80
2022-08-11T04:44:29.863Z,17.77
2022-08-11T04:48:01.731Z,17.84
2022-08-11T04:51:04.066Z,17.89
2022-08-11T04:54:17.279Z,17.88
2022-08-11T04:57:05.393Z,17.94
2022-08-11T05:00:18.958Z,17.97
2022-08-11T05:03:24.969Z,17.94
2022-08-11T05:06:40.956Z,18.06
2022-08-11T05:09:32.256Z,18.10
2022-08-11T05:12:31.182Z,18.12
2022-08-11T05:15:18.080Z,18.18
2022-08-11T05:18:12.521Z,18.23
2022-08-11T05:21:05.672Z,18.22
2022-08-11T05:23:54.430Z,18.13
2022-08-11T05:26:47.640Z,18.27
2022-08-11T05:29:46.248Z,18.34
2022-08-11T05:32:36.132Z,18.46
2022-08-11T05:35:08.129Z,18.52
2022-08-11T05:37:57.282Z,18.56
2022-08-11T05:40:43.586Z,18.26
2022-08-11T05:43:39.722Z,18.21
2022-08-11T05:46:46.794Z,18.54
2022-08-11T05:49:32.818Z,18.53
2022-08-11T05:52:19.793Z,18.56
2022-08-11T05:55:10.941Z,18.56
2022-08-11T05:57:51.700Z,18.60
2022-08-11T06:00:24.327Z,18.64
2022-08-11T06:02:55.508Z,18.68
2022-08-11T06:05:25.162Z,18.74
2022-08-11T06:07:57.240Z,18.82
2022-08-11T06:10:33.584Z,18.88
2022-08-11T06:13:02.350Z,18.97
2022-08-11T06:15:35.656Z,19.02
2022-08-11T06:18:04.790Z,19.11
2022-08-11T06:20:37.600Z,19.17
2022-08-11T06:23:08.973Z,19.20
2022-08-11T06:25:38.457Z,19.22
2022-08-11T06:28:08.653Z,19.27
2022-08-11T06:30:42.778Z,19.34
2022-08-11T06:33:13.686Z,19.36
2022-08-11T06:35:53.038Z,19.51
2022-08-11T06:38:38.069Z,19.49
2022-08-11T06:41:32.054Z,19.41
2022-08-11T06:44:13.269Z,19.32
2022-08-11T06:46:44.534Z,19.59
2022-08-11T06:49:29.092Z,19.63
2022-08-11T06:52:01.806Z,19.53
2022-08-11T06:54:35.245Z,19.66
2022-08-11T06:57:31.914Z,19.73
2022-08-11T07:00:19.444Z,19.97
2022-08-11T07:02:56.347Z,20.13
2022-08-11T07:05:30.086Z,20.22
2022-08-11T07:08:51.254Z,20.44
2022-08-11T07:11:58.890Z,20.47
2022-08-11T07:14:46.885Z,20.90
2022-08-11T07:17:18.523Z,21.15
2022-08-11T07:20:13.009Z,21.46
2022-08-11T07:23:05.877Z,21.85
2022-08-11T07:25:55.261Z,22.07
2022-08-11T07:28:43.805Z,22.10
2022-08-11T07:31:15.525Z,22.49
2022-08-11T07:34:08.108Z,23.21
2022-08-11T07:36:40.848Z,23.81
2022-08-11T07:39:18.253Z,24.00
2022-08-11T07:41:48.518Z,24.54
2022-08-11T07:44:17.561Z,24.70
2022-08-11T07:47:06.713Z,25.07
2022-08-11T07:49:58.742Z,25.70
2022-08-11T07:52:32.661Z,26.23
2022-08-11T07:55:03.399Z,25.86
2022-08-11T07:58:15.783Z,25.94
2022-08-11T08:00:59.345Z,26.11
2022-08-11T08:03:54.444Z,25.56
2022-08-11T08:06:41.591Z,25.56
2022-08-11T08:09:29.988Z,25.83
2022-08-11T08:12:18.473Z,25.62
2022-08-11T08:15:04.185Z,25.82
2022-08-11T08:18:20.709Z,25.84
2022-08-11T08:20:46.000Z,26.14
2022-08-11T08:23:14.866Z,26.06
2022-08-11T08:25:47.026Z,26.29
2022-08-11T08:28:18.745Z,26.47
2022-08-11T08:30:50.086Z,26.76
2022-08-11T08:33:21.863Z,26.52
2022-08-11T08:35:54.532Z,26.67
2022-08-11T08:38:24.448Z,26.38
2022-08-11T08:40:56.522Z,26.45
2022-08-11T08:43:26.041Z,26.36
2022-08-11T08:45:57.384Z,26.49
2022-08-11T08:48:27.462Z,27.15
2022-08-11T08:51:20.060Z,27.39
2022-08-11T08:53:56.470Z,27.27
2022-08-11T08:56:34.722Z,26.63
2022-08-11T08:59:04.079Z,26.23
2022-08-11T09:01:40.163Z,26.00
2022-08-11T09:04:12.223Z,26.34
2022-08-11T09:06:44.247Z,26.72
2022-08-11T09:09:18.781Z,26.75
2022-08-11T09:11:53.709Z,26.57
2022-08-11T09:14:24.364Z,26.91
2022-08-11T09:16:53.868Z,27.20
2022-08-11T09:19:23.146Z,27.59
2022-08-11T09:22:08.977Z,27.40
2022-08-11T09:24:56.372Z,27.55
2022-08-11T09:27:27.666Z,27.81
2022-08-11T09:29:56.567Z,28.02
2022-08-11T09:32:24.870Z,27.91
2022-08-11T09:34:54.147Z,27.36
2022-08-11T09:37:54.923Z,27.70
2022-08-11T09:40:33.780Z,27.79
2022-08-11T09:43:25.815Z,28.43
2022-08-11T09:45:55.366Z,27.68
2022-08-11T09:48:25.942Z,27.99
2022-08-11T09:50:56.356Z,28.16
2022-08-11T09:53:35.873Z,27.95
2022-08-11T09:56:29.027Z,27.76
2022-08-11T09:58:59.216Z,28.27
2022-08-11T10:01:33.231Z,28.58
2022-08-11T10:04:18.502Z,28.61
2022-08-11T10:07:06.808Z,28.34
2022-08-11T10:09:39.982Z,28.06
2022-08-11T10:12:11.608Z,27.96
2022-08-11T10:15:02.498Z,28.20
2022-08-11T10:17:33.194Z,28.21
2022-08-11T10:20:05.888Z,28.47
2022-08-11T10:22:53.251Z,28.92
2022-08-11T10:25:40.232Z,28.70
2022-08-11T10:28:28.380Z,28.40
2022-08-11T10:31:18.372Z,28.52
2022-08-11T10:34:04.172Z,28.54
2022-08-11T10:36:34.762Z,28.53
2022-08-11T10:39:05.159Z,28.77
2022-08-11T10:42:03.345Z,28.68
2022-08-11T10:44:40.379Z,28.81
2022-08-11T10:47:30.894Z,29.05
2022-08-11T10:50:17.490Z,29.26
2022-08-11T10:53:06.447Z,29.47
2022-08-11T10:55:52.947Z,29.63
2022-08-11T10:58:39.909Z,30.01
2022-08-11T11:01:08.828Z,29.29
2022-08-11T11:03:40.482Z,29.33
2022-08-11T11:06:28.219Z,29.89
2022-08-11T11:09:05.472Z,29.64
2022-08-11T11:11:56.285Z,28.76
2022-08-11T11:14:49.920Z,28.78
2022-08-11T11:17:46.699Z,28.66
2022-08-11T11:20:36.504Z,29.08
2022-08-11T11:23:11.554Z,28.86
2022-08-11T11:26:28.029Z,28.72
2022-08-11T11:29:25.377Z,28.67
2022-08-11T11:32:10.580Z,29.53
2022-08-11T11:35:11.712Z,30.16
2022-08-11T11:38:03.902Z,30.93
2022-08-11T11:40:32.709Z,31.38
2022-08-11T11:43:02.366Z,31.24
2022-08-11T11:45:30.751Z,31.10
2022-08-11T11:48:00.827Z,30.36
2022-08-11T11:50:32.902Z,30.01
2022-08-11T11:53:05.525Z,29.78
2022-08-11T11:55:34.044Z,29.56
2022-08-11T11:58:22.110Z,30.16
2022-08-11T12:01:09.395Z,30.39
2022-08-11T12:03:38.706Z,29.83
2022-08-11T12:06:09.517Z,29.58
2022-08-11T12:08:39.068Z,29.78
2022-08-11T12:11:28.124Z,30.47
2022-08-11T12:13:59.244Z,31.37
2022-08-11T12:16:33.793Z,31.88
2022-08-11T12:19:07.369Z,31.74
2022-08-11T12:21:37.650Z,31.49
2022-08-11T12:24:29.288Z,31.93
2022-08-11T12:27:17.630Z,31.70
2022-08-11T12:29:52.882Z,31.18
2022-08-11T12:32:25.416Z,31.22
2022-08-11T12:34:53.931Z,30.91
2022-08-11T12:37:30.516Z,31.06
2022-08-11T12:40:43.782Z,30.96
2022-08-11T12:43:37.859Z,30.99
2022-08-11T12:46:10.242Z,30.56
2022-08-11T12:49:03.383Z,30.64
2022-08-11T12:52:11.977Z,31.09
2022-08-11T12:54:51.934Z,31.52
2022-08-11T12:57:45.402Z,31.24
2022-08-11T13:00:32.431Z,31.40
2022-08-11T13:03:19.223Z,31.81
2022-08-11T13:05:49.653Z,31.61
2022-08-11T13:08:18.922Z,31.97
2022-08-11T13:11:05.782Z,32.06
2022-08-11T13:13:53.509Z,32.24
2022-08-11T13:16:24.427Z,32.10
2022-08-11T13:18:53.764Z,31.73
2022-08-11T13:21:23.121Z,31.56
2022-08-11T13:23:59.520Z,32.17
2022-08-11T13:26:47.828Z,32.36
2022-08-11T13:29:24.349Z,33.03
2022-08-11T13:31:53.604Z,33.52
2022-08-11T13:34:24.148Z,33.08
2022-08-11T13:36:54.486Z,33.09
2022-08-11T13:39:27.340Z,33.45
2022-08-11T13:41:57.115Z,34.31
2022-08-11T13:44:29.016Z,34.01
2022-08-11T13:47:01.672Z,33.47
2022-08-11T13:49:30.971Z,33.78
2022-08-11T13:52:00.746Z,33.73
2022-08-11T13:54:31.658Z,33.37
2022-08-11T13:57:09.464Z,33.30
2022-08-11T14:00:12.241Z,33.21
2022-08-11T14:02:55.069Z,32.51
2022-08-11T14:05:28.541Z,32.24
2022-08-11T14:08:01.212Z,32.58
2022-08-11T14:10:33.149Z,32.85
2022-08-11T14:13:21.233Z,34.06
2022-08-11T14:15:52.658Z,33.53
2022-08-11T14:18:23.901Z,33.01
2022-08-11T14:21:12.978Z,32.78
2022-08-11T14:23:43.653Z,31.92
2022-08-11T14:26:31.867Z,31.60
2022-08-11T14:29:03.276Z,31.24
2022-08-11T14:31:37.217Z,30.99
2022-08-11T14:34:07.849Z,31.04
2022-08-11T14:36:38.011Z,31.26
2022-08-11T14:39:11.702Z,30.89
2022-08-11T14:42:10.276Z,31.20
2022-08-11T14:45:01.250Z,31.45
2022-08-11T14:47:32.827Z,31.93
2022-08-11T14:50:10.762Z,31.91
2022-08-11T14:52:45.169Z,32.50
2022-08-11T14:55:32.457Z,32.69
2022-08-11T14:58:02.038Z,32.03
2022-08-11T15:00:34.382Z,32.85
2022-08-11T15:03:13.895Z,33.32
2022-08-11T15:05:57.242Z,33.13
2022-08-11T15:08:42.683Z,33.11
2022-08-11T15:11:33.548Z,33.78
2022-08-11T15:14:03.602Z,34.11
2022-08-11T15:16:49.990Z,34.20
2022-08-11T15:19:22.172Z,34.63
2022-08-11T15:22:08.713Z,35.08
2022-08-11T15:24:37.839Z,34.98
2022-08-11T15:27:25.807Z,33.83
2022-08-11T15:30:17.548Z,33.21
2022-08-11T15:33:27.208Z,33.80
2022-08-11T15:36:15.652Z,34.02
2022-08-11T15:38:47.619Z,33.87
2022-08-11T15:41:36.641Z,32.86
2022-08-11T15:44:51.416Z,32.43
2022-08-11T15:47:16.416Z,32.34
2022-08-11T15:50:11.925Z,32.28
2022-08-11T15:52:47.495Z,32.81
2022-08-11T15:55:16.485Z,33.38
2022-08-11T15:58:03.193Z,34.14
2022-08-11T16:00:49.178Z,34.21
2022-08-11T16:04:06.543Z,33.83
2022-08-11T16:06:35.792Z,33.15
2022-08-11T16:09:18.257Z,33.18
2022-08-11T16:11:48.078Z,33.54
2022-08-11T16:14:35.340Z,34.01
2022-08-11T16:17:05.604Z,33.25
2022-08-11T16:19:36.750Z,32.49
2022-08-11T16:22:08.314Z,32.34
2022-08-11T16:27:03.321Z,32.00
2022-08-11T16:27:34.467Z,32.91
2022-08-11T16:30:05.381Z,32.88
2022-08-11T16:32:35.506Z,32.65
2022-08-11T16:35:25.244Z,32.79
2022-08-11T16:38:11.428Z,33.05
2022-08-11T16:40:41.775Z,33.18
2022-08-11T16:43:32.015Z,33.42
2022-08-11T16:46:19.689Z,33.40
2022-08-11T16:48:50.607Z,33.12
2022-08-11T16:51:21.038Z,32.62
2022-08-11T16:54:04.381Z,31.74
2022-08-11T16:56:38.817Z,30.87
2022-08-11T16:59:16.535Z,30.35
2022-08-11T17:01:49.212Z,29.84
2022-08-11T17:04:54.930Z,29.32
2022-08-11T17:07:43.298Z,28.99
2022-08-11T17:10:51.309Z,28.72
2022-08-11T17:13:38.017Z,28.51
2022-08-11T17:16:10.168Z,28.54
2022-08-11T17:18:45.501Z,28.65
2022-08-11T17:21:17.402Z,28.73
2022-08-11T17:23:48.230Z,28.69
2022-08-11T17:26:19.533Z,28.53
2022-08-11T17:28:53.016Z,28.23
2022-08-11T17:31:40.814Z,27.93
2022-08-11T17:34:27.499Z,27.70
2022-08-11T17:36:56.258Z,27.34
2022-08-11T17:39:29.553Z,27.41
2022-08-11T17:42:16.336Z,27.18
2022-08-11T17:45:04.645Z,26.91
2022-08-11T17:47:52.524Z,26.52
2022-08-11T17:50:21.249Z,26.39
2022-08-11T17:53:10.216Z,26.11
2022-08-11T17:55:58.465Z,26.20
2022-08-11T17:58:47.394Z,26.11
2022-08-11T18:01:18.384Z,25.84
2022-08-11T18:03:56.291Z,25.84
2022-08-11T18:06:34.252Z,25.79
2022-08-11T18:09:22.758Z,25.69
2022-08-11T18:12:12.192Z,25.59
2022-08-11T18:14:59.311Z,25.33
2022-08-11T18:17:46.070Z,25.41
2022-08-11T18:20:31.658Z,25.29
2022-08-11T18:23:17.852Z,25.00
2022-08-11T18:26:07.310Z,25.11
2022-08-11T18:28:59.880Z,25.06
2022-08-11T18:31:46.220Z,25.04
2022-08-11T18:34:36.210Z,24.97
2022-08-11T18:37:28.600Z,24.81
2022-08-11T18:40:19.209Z,24.80
2022-08-11T18:43:06.536Z,24.74
2022-08-11T18:46:06.401Z,24.69
2022-08-11T18:48:55.175Z,24.61
2022-08-11T18:51:44.251Z,24.53
2022-08-11T18:54:31.137Z,24.46
2022-08-11T18:57:22.414Z,23.84
2022-08-11T19:00:11.961Z,24.32
2022-08-11T19:02:59.942Z,24.07
2022-08-11T19:06:35.808Z,24.21
2022-08-11T19:09:01.085Z,24.17
2022-08-11T19:11:49.705Z,24.11
2022-08-11T19:14:38.049Z,24.02
2022-08-11T19:17:44.079Z,23.91
2022-08-11T19:20:35.326Z,23.81
2022-08-11T19:23:22.306Z,23.75
2022-08-11T19:26:10.178Z,23.62
2022-08-11T19:28:58.198Z,23.62
2022-08-11T19:31:45.673Z,23.28
2022-08-11T19:34:33.774Z,23.44
2022-08-11T19:37:24.410Z,23.44
2022-08-11T19:40:13.343Z,23.11
2022-08-11T19:43:02.713Z,23.27
2022-08-11T19:45:52.540Z,22.99
2022-08-11T19:48:40.218Z,23.12
2022-08-11T19:51:27.268Z,22.67
2022-08-11T19:54:13.912Z,22.97
2022-08-11T19:57:00.936Z,22.72
2022-08-11T19:59:49.304Z,22.85
2022-08-11T20:02:35.085Z,22.80
2022-08-11T20:05:21.238Z,22.54
2022-08-11T20:08:08.221Z,22.73
2022-08-11T20:10:55.964Z,22.72
2022-08-11T20:13:43.433Z,22.72
2022-08-11T20:16:32.776Z,22.67
2022-08-11T20:19:19.977Z,22.60
2022-08-11T20:22:13.198Z,22.66
2022-08-11T20:25:00.957Z,22.59
2022-08-11T20:27:47.280Z,22.67
2022-08-11T20:30:33.280Z,22.68
2022-08-11T20:33:21.320Z,22.69
2022-08-11T20:36:08.474Z,22.36
2022-08-11T20:38:55.532Z,22.63
2022-08-11T20:41:58.826Z,22.36
2022-08-11T20:44:47.666Z,22.21
2022-08-11T20:47:56.546Z,22.53
2022-08-11T20:50:46.283Z,22.50
2022-08-11T20:53:38.985Z,22.45
2022-08-11T20:59:43.683Z,22.32
2022-08-11T21:02:41.094Z,22.26
2022-08-11T21:06:08.934Z,22.16
2022-08-11T21:08:38.836Z,22.08
2022-08-11T21:11:28.651Z,21.94
2022-08-11T21:14:16.357Z,21.54
2022-08-11T21:17:18.701Z,21.86
2022-08-11T21:20:20.645Z,21.77
2022-08-11T21:23:19.815Z,21.68
2022-08-11T21:26:17.946Z,21.62
2022-08-11T21:29:09.398Z,21.04
2022-08-11T21:31:58.098Z,21.47
2022-08-11T21:34:44.814Z,21.42
2022-08-11T21:37:31.878Z,21.31
2022-08-11T21:40:20.908Z,21.46
2022-08-11T21:43:10.924Z,21.47
2022-08-11T21:45:59.592Z,21.39
2022-08-11T21:48:47.683Z,21.42
2022-08-11T21:51:33.122Z,21.36
2022-08-11T21:54:21.033Z,21.30
2022-08-11T21:57:10.117Z,21.25
2022-08-11T22:00:04.706Z,21.20
2022-08-11T22:02:53.222Z,21.15
2022-08-11T22:05:39.861Z,21.13
2022-08-11T22:08:29.320Z,21.12
2022-08-11T22:11:16.691Z,21.08
2022-08-11T22:14:18.181Z,21.02
2022-08-11T22:17:05.268Z,20.80
2022-08-11T22:19:53.231Z,20.88
2022-08-11T22:22:52.518Z,20.83
2022-08-11T22:25:44.248Z,20.76
2022-08-11T22:28:37.570Z,20.66
2022-08-11T22:31:24.347Z,20.59
2022-08-11T22:34:11.158Z,20.56
2022-08-11T22:36:57.678Z,20.65
2022-08-11T22:39:44.650Z,20.64
2022-08-11T22:42:45.987Z,20.59
2022-08-11T22:45:32.151Z,20.56
2022-08-11T22:48:20.441Z,20.55
2022-08-11T22:51:08.095Z,20.48
2022-08-11T22:53:55.242Z,20.49
2022-08-11T22:56:46.819Z,20.21
2022-08-11T22:59:32.989Z,20.42
2022-08-11T23:02:20.184Z,20.33
2022-08-11T23:05:09.431Z,20.28
2022-08-11T23:07:57.590Z,20.01
2022-08-11T23:10:44.484Z,19.87
2022-08-11T23:13:30.913Z,20.02
2022-08-11T23:16:19.989Z,20.03
2022-08-11T23:19:07.126Z,19.90
2022-08-11T23:21:53.738Z,19.98
2022-08-11T23:24:43.490Z,19.94
2022-08-11T23:27:31.659Z,19.91
2022-08-11T23:30:20.845Z,19.81
2022-08-11T23:33:09.348Z,19.75
2022-08-11T23:36:02.266Z,19.79
2022-08-11T23:38:51.588Z,19.73
2022-08-11T23:41:39.515Z,19.67
2022-08-11T23:44:27.104Z,19.35
2022-08-11T23:47:15.282Z,19.40
2022-08-11T23:50:01.277Z,19.35
2022-08-11T23:52:48.587Z,19.46
2022-08-11T23:55:38.130Z,19.51
2022-08-11T23:58:24.989Z,19.42
